createdAt,value
2019-04-19T00:00:12.820Z,13.40
2019-04-19T00:02:44.638Z,13.40
2019-04-19T00:05:13.152Z,13.30
2019-04-19T00:07:47.981Z,13.30
2019-04-19T00:10:28.444Z,13.30
2019-04-19T00:12:50.347Z,13.30
2019-04-19T00:15:14.018Z,13.20
2019-04-19T00:17:43.936Z,13.20
2019-04-19T00:20:31.402Z,13.10
2019-04-19T00:22:58.190Z,13.10
2019-04-19T00:25:14.060Z,13.10
2019-04-19T00:27:49.383Z,13.00
2019-04-19T00:30:23.745Z,13.00
2019-04-19T00:33:00.656Z,13.00
2019-04-19T00:35:14.342Z,12.90
2019-04-19T00:37:43.177Z,12.90
2019-04-19T00:40:32.058Z,12.90
2019-04-19T00:42:56.949Z,12.90
2019-04-19T00:45:26.219Z,12.80
2019-04-19T00:47:55.977Z,12.80
2019-04-19T00:50:23.953Z,12.80
2019-04-19T00:53:02.935Z,12.70
2019-04-19T00:55:21.623Z,12.70
2019-04-19T00:57:51.934Z,12.60
2019-04-19T01:00:22.647Z,12.50
2019-04-19T01:02:52.975Z,12.50
2019-04-19T01:05:20.932Z,12.50
2019-04-19T01:07:49.495Z,12.50
2019-04-19T01:10:31.184Z,12.50
2019-04-19T01:13:05.472Z,12.50
2019-04-19T01:15:29.931Z,12.50
2019-04-19T01:18:05.468Z,12.40
2019-04-19T01:20:20.565Z,12.30
2019-04-19T01:22:58.801Z,12.30
2019-04-19T01:25:24.082Z,12.30
2019-04-19T01:27:50.939Z,12.20
2019-04-19T01:30:28.788Z,12.20
2019-04-19T01:32:57.262Z,12.10
2019-04-19T01:35:21.841Z,12.10
2019-04-19T01:37:56.742Z,12.10
2019-04-19T01:40:43.999Z,12.10
2019-04-19T01:43:06.077Z,12.00
2019-04-19T01:45:44.694Z,12.00
2019-04-19T01:48:07.600Z,12.00
2019-04-19T01:50:44.162Z,12.00
2019-04-19T01:53:17.346Z,11.90
2019-04-19T01:55:29.685Z,11.90
2019-04-19T01:58:02.532Z,11.90
2019-04-19T02:00:37.231Z,11.80
2019-04-19T02:02:59.900Z,11.80
2019-04-19T02:05:27.692Z,11.80
2019-04-19T02:08:03.485Z,11.70
2019-04-19T02:11:02.714Z,11.70
2019-04-19T02:13:31.682Z,11.70
2019-04-19T02:15:57.555Z,11.60
2019-04-19T02:18:29.396Z,11.70
2019-04-19T02:20:58.182Z,11.60
2019-04-19T02:23:28.169Z,11.60
2019-04-19T02:26:03.409Z,11.50
2019-04-19T02:28:31.832Z,11.60
2019-04-19T02:31:19.090Z,11.50
2019-04-19T02:33:55.958Z,11.50
2019-04-19T02:36:25.386Z,11.50
2019-04-19T02:39:06.813Z,11.50
2019-04-19T02:41:40.036Z,11.50
2019-04-19T02:43:59.349Z,11.40
2019-04-19T02:49:02.129Z,11.40
2019-04-19T02:51:32.955Z,11.40
2019-04-19T02:54:02.325Z,11.40
2019-04-19T02:56:44.582Z,11.40
2019-04-19T02:59:18.555Z,11.40
2019-04-19T03:01:40.122Z,11.30
2019-04-19T03:04:15.799Z,11.30
2019-04-19T03:06:22.419Z,11.40
2019-04-19T03:08:37.470Z,11.30
2019-04-19T03:11:22.066Z,11.30
2019-04-19T03:13:54.563Z,11.30
2019-04-19T03:16:31.241Z,11.30
2019-04-19T03:18:53.625Z,11.30
2019-04-19T03:21:25.119Z,11.30
2019-04-19T03:23:56.625Z,11.30
2019-04-19T03:26:28.070Z,11.20
2019-04-19T03:28:48.179Z,11.20
2019-04-19T03:31:41.354Z,11.10
2019-04-19T03:34:11.617Z,11.10
2019-04-19T03:36:27.196Z,11.00
2019-04-19T03:39:07.133Z,11.00
2019-04-19T03:44:03.622Z,10.90
2019-04-19T03:46:31.461Z,10.90
2019-04-19T03:48:56.146Z,10.90
2019-04-19T03:51:35.872Z,10.80
2019-04-19T03:54:00.528Z,10.80
2019-04-19T03:56:36.086Z,10.80
2019-04-19T03:58:46.425Z,10.80
2019-04-19T04:01:15.270Z,10.80
2019-04-19T04:03:47.946Z,10.70
2019-04-19T04:06:21.972Z,10.70
2019-04-19T04:08:48.240Z,10.70
2019-04-19T04:11:20.119Z,10.60
2019-04-19T04:14:03.019Z,10.60
2019-04-19T04:16:25.222Z,10.60
2019-04-19T04:18:47.157Z,10.50
2019-04-19T04:21:16.302Z,10.50
2019-04-19T04:23:51.147Z,10.50
2019-04-19T04:26:19.504Z,10.50
2019-04-19T04:28:59.501Z,10.50
2019-04-19T04:31:25.555Z,10.40
2019-04-19T04:33:58.118Z,10.40
2019-04-19T04:36:39.941Z,10.40
2019-04-19T04:38:49.963Z,10.40
2019-04-19T04:41:23.618Z,10.30
2019-04-19T04:44:10.241Z,10.40
2019-04-19T04:46:44.886Z,10.40
2019-04-19T04:49:07.183Z,10.40
2019-04-19T04:51:42.248Z,10.40
2019-04-19T04:53:51.174Z,10.40
2019-04-19T04:56:21.436Z,10.40
2019-04-19T04:58:51.167Z,10.40
2019-04-19T05:01:33.524Z,10.40
2019-04-19T05:04:07.422Z,10.50
2019-04-19T05:06:34.347Z,10.60
2019-04-19T05:09:16.914Z,10.60
2019-04-19T05:11:38.577Z,10.70
2019-04-19T05:14:12.184Z,10.80
2019-04-19T05:16:46.733Z,10.80
2019-04-19T05:19:13.094Z,11.00
2019-04-19T05:21:40.348Z,12.40
2019-04-19T05:24:14.958Z,14.10
2019-04-19T05:26:47.266Z,15.30
2019-04-19T05:29:10.911Z,16.30
2019-04-19T05:31:32.899Z,17.00
2019-04-19T05:34:17.651Z,17.70
2019-04-19T05:36:43.909Z,17.90
2019-04-19T05:39:17.358Z,18.40
2019-04-19T05:41:44.094Z,19.10
2019-04-19T05:46:51.774Z,19.40
2019-04-19T05:49:16.069Z,19.60
2019-04-19T06:24:25.097Z,15.60
2019-04-19T06:27:02.661Z,14.70
2019-04-19T06:29:23.893Z,14.20
2019-04-19T06:31:58.553Z,13.90
2019-04-19T06:34:23.097Z,13.80
2019-04-19T06:36:31.651Z,13.60
2019-04-19T06:39:01.481Z,13.60
2019-04-19T06:41:37.773Z,13.70
2019-04-19T06:44:10.844Z,13.80
2019-04-19T06:46:45.217Z,13.70
2019-04-19T06:49:08.325Z,13.80
2019-04-19T06:51:41.579Z,13.90
2019-04-19T06:54:07.170Z,13.90
2019-04-19T06:56:38.225Z,14.00
2019-04-19T06:59:13.876Z,14.10
2019-04-19T07:01:42.021Z,14.20
2019-04-19T07:04:06.092Z,14.30
2019-04-19T07:06:48.190Z,14.50
2019-04-19T07:09:35.604Z,14.50
2019-04-19T07:11:55.473Z,14.60
2019-04-19T07:14:14.578Z,14.70
2019-04-19T07:16:59.670Z,14.90
2019-04-19T07:19:30.384Z,15.00
2019-04-19T07:21:57.878Z,15.10
2019-04-19T07:24:33.940Z,15.20
2019-04-19T07:26:57.823Z,15.30
2019-04-19T07:29:10.758Z,15.50
2019-04-19T07:31:40.173Z,15.50
2019-04-19T07:34:22.271Z,15.70
2019-04-19T07:36:59.358Z,15.80
2019-04-19T07:39:28.352Z,15.90
2019-04-19T07:42:07.731Z,15.90
2019-04-19T07:44:21.269Z,16.00
2019-04-19T07:47:02.162Z,16.10
2019-04-19T07:49:15.351Z,16.30
2019-04-19T07:51:56.545Z,16.30
2019-04-19T07:54:19.782Z,16.40
2019-04-19T07:56:58.438Z,16.50
2019-04-19T07:59:42.382Z,16.60
2019-04-19T08:07:24.260Z,17.00
2019-04-19T08:17:35.527Z,17.20
2019-04-19T08:29:35.213Z,17.70
2019-04-19T08:31:53.452Z,17.80
2019-04-19T08:34:27.292Z,17.90
2019-04-19T08:36:58.605Z,17.90
2019-04-19T08:39:41.730Z,17.90
2019-04-19T08:42:18.411Z,18.00
2019-04-19T08:44:40.599Z,18.00
2019-04-19T08:47:00.007Z,18.20
2019-04-19T08:49:37.159Z,18.20
2019-04-19T08:52:08.445Z,18.40
2019-04-19T08:54:54.733Z,18.40
2019-04-19T08:57:08.165Z,18.50
2019-04-19T08:59:54.027Z,18.70
2019-04-19T09:02:23.424Z,18.70
2019-04-19T09:04:51.978Z,18.90
2019-04-19T09:10:14.035Z,19.00
2019-04-19T09:12:21.082Z,19.20
2019-04-19T09:14:56.351Z,19.20
2019-04-19T09:17:33.202Z,19.30
2019-04-19T09:20:14.114Z,19.30
2019-04-19T09:22:25.540Z,19.40
2019-04-19T09:24:47.878Z,19.50
2019-04-19T09:27:33.854Z,19.50
2019-04-19T09:29:58.942Z,19.60
2019-04-19T09:32:15.395Z,19.80
2019-04-19T09:34:47.086Z,19.80
2019-04-19T09:37:20.304Z,19.80
2019-04-19T09:39:48.865Z,19.90
2019-04-19T09:42:24.359Z,20.00
2019-04-19T09:44:48.292Z,20.10
2019-04-19T09:47:12.407Z,20.10
2019-04-19T09:49:53.259Z,20.30
2019-04-19T09:52:35.687Z,20.50
2019-04-19T09:55:04.006Z,20.70
2019-04-19T09:57:34.468Z,20.60
2019-04-19T09:59:44.721Z,20.80
2019-04-19T10:02:22.538Z,20.90
2019-04-19T10:04:44.147Z,21.00
2019-04-19T10:07:13.013Z,21.10
2019-04-19T10:09:42.904Z,21.20
2019-04-19T10:12:11.782Z,21.30
2019-04-19T10:14:41.676Z,21.50
2019-04-19T10:17:12.353Z,21.70
2019-04-19T10:19:42.493Z,21.60
2019-04-19T10:22:12.377Z,21.80
2019-04-19T10:24:41.325Z,21.80
2019-04-19T10:30:04.314Z,22.00
2019-04-19T10:32:46.530Z,22.30
2019-04-19T10:35:27.708Z,22.30
2019-04-19T10:38:09.526Z,22.30
2019-04-19T10:40:51.413Z,22.40
2019-04-19T10:43:32.933Z,22.50
2019-04-19T10:46:15.064Z,22.50
2019-04-19T10:49:07.907Z,22.50
2019-04-19T10:51:39.755Z,22.60
2019-04-19T10:54:20.611Z,22.70
2019-04-19T10:57:02.202Z,22.90
2019-04-19T10:59:44.712Z,23.00
2019-04-19T11:02:26.767Z,23.20
2019-04-19T11:05:09.196Z,23.40
2019-04-19T11:07:51.638Z,23.50
2019-04-19T11:10:33.545Z,23.40
2019-04-19T11:13:14.958Z,23.50
2019-04-19T11:15:56.320Z,23.40
2019-04-19T11:18:37.668Z,23.60
2019-04-19T11:21:19.872Z,23.70
2019-04-19T11:24:01.976Z,23.60
2019-04-19T11:26:43.233Z,23.60
2019-04-19T11:29:24.230Z,23.90
2019-04-19T11:32:06.012Z,23.90
2019-04-19T11:34:47.588Z,24.10
2019-04-19T11:40:13.078Z,24.40
2019-04-19T11:42:55.206Z,24.40
2019-04-19T11:45:37.699Z,24.50
2019-04-19T11:48:19.022Z,24.60
2019-04-19T11:51:00.167Z,24.60
2019-04-19T11:53:40.814Z,24.60
2019-04-19T11:56:22.749Z,24.60
2019-04-19T11:59:04.713Z,24.50
2019-04-19T12:01:46.170Z,24.50
2019-04-19T12:04:26.618Z,24.40
2019-04-19T12:07:08.191Z,24.40
2019-04-19T12:09:50.353Z,24.50
2019-04-19T12:12:32.861Z,24.60
2019-04-19T12:15:14.091Z,24.80
2019-04-19T12:17:55.447Z,24.90
2019-04-19T12:20:37.480Z,24.90
2019-04-19T12:23:18.219Z,24.80
2019-04-19T12:25:59.801Z,24.70
2019-04-19T12:28:41.704Z,24.60
2019-04-19T12:31:23.376Z,24.70
2019-04-19T12:34:06.866Z,24.60
2019-04-19T12:36:47.369Z,24.80
2019-04-19T12:39:28.591Z,24.80
2019-04-19T12:42:11.111Z,24.90
2019-04-19T12:44:52.386Z,24.80
2019-04-19T12:47:33.728Z,25.00
2019-04-19T12:50:16.243Z,24.80
2019-04-19T12:52:57.958Z,25.10
2019-04-19T12:55:39.952Z,25.10
2019-04-19T12:58:21.996Z,25.20
2019-04-19T13:01:03.863Z,25.30
2019-04-19T13:03:46.284Z,25.20
2019-04-19T13:06:27.879Z,25.00
2019-04-19T13:09:08.932Z,25.10
2019-04-19T13:11:50.602Z,25.20
2019-04-19T13:14:33.315Z,25.20
2019-04-19T13:17:14.503Z,25.30
2019-04-19T13:20:08.671Z,25.40
2019-04-19T13:22:38.853Z,25.40
2019-04-19T13:25:19.951Z,25.40
2019-04-19T13:28:01.711Z,25.50
2019-04-19T13:30:50.035Z,25.60
2019-04-19T13:33:26.105Z,25.20
2019-04-19T13:36:07.343Z,25.30
2019-04-19T13:38:48.775Z,25.40
2019-04-19T13:41:29.683Z,25.40
2019-04-19T13:44:11.267Z,25.50
2019-04-19T13:46:52.946Z,25.40
2019-04-19T13:49:34.673Z,25.40
2019-04-19T13:52:16.630Z,25.30
2019-04-19T13:54:58.846Z,25.20
2019-04-19T13:57:37.926Z,25.40
2019-04-19T14:00:46.699Z,25.40
2019-04-19T14:03:35.286Z,25.30
2019-04-19T14:06:44.604Z,25.50
2019-04-19T14:09:33.619Z,25.60
2019-04-19T14:12:43.046Z,25.70
2019-04-19T14:15:31.443Z,25.70
2019-04-19T14:18:19.598Z,25.80
2019-04-19T14:21:08.683Z,25.80
2019-04-19T14:24:04.126Z,25.50
2019-04-19T14:26:55.517Z,25.70
2019-04-19T14:30:03.665Z,25.70
2019-04-19T14:33:12.736Z,25.80
2019-04-19T14:36:01.966Z,25.80
2019-04-19T14:39:10.942Z,25.70
2019-04-19T14:41:59.440Z,25.70
2019-04-19T14:44:47.632Z,25.60
2019-04-19T14:47:36.942Z,25.60
2019-04-19T14:50:54.172Z,25.70
2019-04-19T14:53:55.913Z,25.60
2019-04-19T14:56:58.665Z,25.60
2019-04-19T14:59:40.802Z,25.50
2019-04-19T15:02:22.761Z,25.50
2019-04-19T15:05:05.455Z,25.60
2019-04-19T15:07:46.540Z,25.70
2019-04-19T15:10:27.738Z,25.80
2019-04-19T15:13:08.942Z,25.90
2019-04-19T15:15:50.075Z,26.00
2019-04-19T15:18:31.888Z,25.80
2019-04-19T15:24:16.967Z,25.70
2019-04-19T15:27:05.356Z,25.70
2019-04-19T15:29:59.021Z,25.80
2019-04-19T15:32:44.479Z,25.60
2019-04-19T15:35:53.859Z,25.60
2019-04-19T15:38:42.004Z,25.50
2019-04-19T15:41:30.330Z,25.60
2019-04-19T15:44:18.979Z,25.50
2019-04-19T15:47:08.391Z,25.50
2019-04-19T15:56:22.665Z,25.30
2019-04-19T15:59:04.970Z,25.30
2019-04-19T16:01:46.476Z,25.30
2019-04-19T16:04:29.510Z,25.30
2019-04-19T16:07:10.746Z,25.30
2019-04-19T16:09:55.687Z,25.30
2019-04-19T16:12:34.181Z,25.20
2019-04-19T16:15:16.070Z,25.10
2019-04-19T16:17:57.791Z,25.20
2019-04-19T16:20:39.128Z,25.10
2019-04-19T16:23:20.624Z,25.10
2019-04-19T16:26:03.230Z,25.00
2019-04-19T16:28:44.438Z,25.00
2019-04-19T16:31:26.482Z,25.00
2019-04-19T16:34:08.218Z,25.00
2019-04-19T16:36:50.061Z,25.00
2019-04-19T16:39:19.317Z,24.90
2019-04-19T16:41:48.945Z,24.90
2019-04-19T16:44:57.785Z,24.80
2019-04-19T16:47:47.213Z,24.70
2019-04-19T16:50:56.742Z,24.70
2019-04-19T16:53:26.079Z,24.70
2019-04-19T16:56:28.347Z,24.60
2019-04-19T16:59:00.019Z,24.60
2019-04-19T17:02:00.934Z,24.50
2019-04-19T17:05:00.827Z,24.40
2019-04-19T17:07:59.587Z,24.40
2019-04-19T17:10:59.732Z,24.30
2019-04-19T17:14:02.851Z,24.20
2019-04-19T17:17:06.995Z,24.20
2019-04-19T17:20:02.811Z,24.10
2019-04-19T17:23:01.583Z,24.10
2019-04-19T17:25:50.754Z,24.10
2019-04-19T17:28:59.440Z,24.00
2019-04-19T17:32:08.007Z,24.00
2019-04-19T17:35:18.316Z,23.90
2019-04-19T17:38:33.670Z,23.70
2019-04-19T17:41:36.770Z,23.60
2019-04-19T17:44:25.840Z,23.60
2019-04-19T17:47:38.209Z,23.50
2019-04-19T17:50:44.071Z,23.30
2019-04-19T17:53:40.099Z,23.30
2019-04-19T17:56:24.462Z,23.20
2019-04-19T17:59:06.511Z,23.00
2019-04-19T18:01:48.393Z,22.90
2019-04-19T18:04:30.269Z,22.80
2019-04-19T18:07:11.619Z,22.70
2019-04-19T18:09:57.151Z,22.60
2019-04-19T18:12:35.236Z,22.50
2019-04-19T18:15:17.279Z,22.30
2019-04-19T18:18:02.045Z,22.10
2019-04-19T18:23:48.144Z,21.80
2019-04-19T18:26:54.644Z,21.60
2019-04-19T18:30:05.005Z,21.50
2019-04-19T18:33:18.163Z,21.30
2019-04-19T18:42:01.805Z,21.20
2019-04-19T18:45:00.802Z,21.00
2019-04-19T18:48:01.041Z,20.90
2019-04-19T18:51:04.343Z,20.80
2019-04-19T18:54:13.397Z,20.70
2019-04-19T18:57:02.569Z,20.60
2019-04-19T18:59:45.355Z,20.40
2019-04-19T19:02:26.718Z,20.30
2019-04-19T19:05:09.764Z,20.20
2019-04-19T19:07:56.273Z,20.20
2019-04-19T19:10:39.587Z,20.10
2019-04-19T19:13:16.463Z,20.00
2019-04-19T19:15:58.226Z,19.90
2019-04-19T19:18:45.809Z,19.80
2019-04-19T19:21:28.796Z,19.70
2019-04-19T19:24:27.614Z,19.70
2019-04-19T19:27:00.958Z,19.60
2019-04-19T19:29:34.258Z,19.60
2019-04-19T19:32:17.512Z,19.50
2019-04-19T19:35:03.192Z,19.50
2019-04-19T19:37:43.088Z,19.50
2019-04-19T19:40:33.466Z,19.40
2019-04-19T19:43:15.539Z,19.40
2019-04-19T19:45:41.450Z,19.20
2019-04-19T19:48:13.273Z,19.10
2019-04-19T19:50:48.502Z,19.10
2019-04-19T19:53:17.008Z,19.10
2019-04-19T19:55:47.021Z,19.10
2019-04-19T19:58:08.146Z,19.00
2019-04-19T20:00:40.952Z,19.00
2019-04-19T20:03:10.756Z,18.90
2019-04-19T20:05:33.270Z,18.80
2019-04-19T20:07:59.586Z,18.80
2019-04-19T20:10:36.118Z,18.70
2019-04-19T20:13:01.757Z,18.60
2019-04-19T20:15:33.957Z,18.60
2019-04-19T20:18:01.953Z,18.50
2019-04-19T20:20:34.197Z,18.50
2019-04-19T20:23:02.403Z,18.40
2019-04-19T20:25:38.569Z,18.30
2019-04-19T20:28:03.018Z,18.30
2019-04-19T20:30:39.175Z,18.20
2019-04-19T20:33:03.718Z,18.20
2019-04-19T20:35:34.429Z,18.10
2019-04-19T20:38:07.485Z,18.00
2019-04-19T20:40:34.368Z,17.90
2019-04-19T20:43:27.952Z,17.80
2019-04-19T20:45:41.941Z,17.80
2019-04-19T20:48:15.598Z,17.70
2019-04-19T20:50:47.295Z,17.70
2019-04-19T20:53:16.195Z,17.60
2019-04-19T20:56:10.875Z,17.50
2019-04-19T20:58:22.281Z,17.40
2019-04-19T21:00:38.546Z,17.30
2019-04-19T21:03:07.978Z,17.20
2019-04-19T21:05:42.591Z,17.20
2019-04-19T21:08:11.002Z,17.10
2019-04-19T21:10:39.222Z,17.10
2019-04-19T21:13:12.174Z,17.00
2019-04-19T21:15:40.519Z,17.00
2019-04-19T21:18:16.021Z,16.90
2019-04-19T21:20:40.582Z,16.90
2019-04-19T21:23:16.687Z,16.80
2019-04-19T21:25:46.520Z,16.70
2019-04-19T21:28:10.618Z,16.70
2019-04-19T21:30:47.819Z,16.60
2019-04-19T21:33:13.440Z,16.60
2019-04-19T21:35:48.343Z,16.50
2019-04-19T21:38:17.249Z,16.50
2019-04-19T21:40:43.607Z,16.40
2019-04-19T21:43:12.914Z,16.40
2019-04-19T21:45:46.288Z,16.40
2019-04-19T21:48:12.924Z,16.30
2019-04-19T21:50:45.446Z,16.20
2019-04-19T21:53:12.865Z,16.20
2019-04-19T21:55:44.785Z,16.10
2019-04-19T21:58:17.734Z,16.10
2019-04-19T22:00:45.289Z,16.00
2019-04-19T22:03:18.551Z,16.00
2019-04-19T22:05:45.195Z,15.90
2019-04-19T22:08:20.976Z,15.90
2019-04-19T22:10:47.227Z,15.80
2019-04-19T22:13:15.167Z,15.80
2019-04-19T22:15:50.730Z,15.80
2019-04-19T22:18:15.249Z,15.70
2019-04-19T22:20:51.323Z,15.70
2019-04-19T22:23:16.104Z,15.60
2019-04-19T22:25:52.680Z,15.60
2019-04-19T22:28:15.498Z,15.50
2019-04-19T22:30:49.701Z,15.50
2019-04-19T22:33:14.682Z,15.50
2019-04-19T22:35:48.054Z,15.40
2019-04-19T22:38:17.983Z,15.30
2019-04-19T22:40:45.043Z,15.30
2019-04-19T22:43:15.069Z,15.30
2019-04-19T22:45:44.563Z,15.30
2019-04-19T22:48:16.797Z,15.20
2019-04-19T22:50:44.554Z,15.20
2019-04-19T22:53:17.275Z,15.10
2019-04-19T22:55:52.276Z,15.10
2019-04-19T22:58:20.934Z,15.00
2019-04-19T23:00:47.105Z,15.00
2019-04-19T23:03:23.988Z,15.00
2019-04-19T23:05:48.330Z,15.00
2019-04-19T23:08:24.470Z,14.90
2019-04-19T23:10:54.283Z,14.90
2019-04-19T23:13:17.662Z,14.80
2019-04-19T23:15:47.782Z,14.80
2019-04-19T23:18:21.458Z,14.80
2019-04-19T23:20:47.442Z,14.70
2019-04-19T23:23:21.815Z,14.60
2019-04-19T23:26:03.201Z,14.60
2019-04-19T23:28:25.349Z,14.50
2019-04-19T23:30:47.612Z,14.40
2019-04-19T23:33:21.045Z,14.40
2019-04-19T23:35:49.179Z,14.30
2019-04-19T23:38:22.554Z,14.30
2019-04-19T23:40:48.772Z,14.30
2019-04-19T23:43:24.236Z,14.30
2019-04-19T23:45:49.238Z,14.30
2019-04-19T23:48:24.227Z,14.20
2019-04-19T23:50:50.081Z,14.10
2019-04-19T23:53:22.523Z,14.00
2019-04-19T23:55:50.674Z,14.00
2019-04-19T23:58:28.185Z,14.00
